Time,TemperatureF,DewpointF,PressureIn,WindDirection,WindDirectionDegrees,WindSpeedMPH,WindSpeedGustMPH,Humidity,HourlyPrecipIn,Conditions,Clouds,dailyrainin,SolarRadiationWatts/m^2,SoftwareType,DateUTC
2013-06-28 00:01:00,71.5,-99.9,29.94,WNW,292,4.0,7.1,58,0.00,,,0.00,0,,2013-06-28 05:01:00,
2013-06-28 00:11:00,71.3,-99.9,29.94,West,277,5.0,7.1,58,0.00,,,0.00,0,,2013-06-28 05:11:00,
2013-06-28 00:21:00,70.9,-99.9,29.94,NW,308,4.0,7.1,60,0.00,,,0.00,0,,2013-06-28 05:21:00,
2013-06-28 00:31:00,70.8,-99.9,29.94,WNW,283,5.0,7.1,60,0.00,,,0.00,0,,2013-06-28 05:31:00,
2013-06-28 00:41:00,70.6,-99.9,29.94,WNW,297,6.0,10.5,60,0.00,,,0.00,0,,2013-06-28 05:41:00,
2013-06-28 00:51:00,70.4,-99.9,29.94,WNW,297,7.0,10.5,60,0.00,,,0.00,0,,2013-06-28 05:51:00,
2013-06-28 01:01:00,70.0,-99.9,29.94,NW,310,6.0,8.8,61,0.00,,,0.00,0,,2013-06-28 06:01:00,
2013-06-28 01:11:00,70.0,-99.9,29.94,WNW,287,6.0,10.5,61,0.00,,,0.00,0,,2013-06-28 06:11:00,
2013-06-28 01:21:00,70.0,-99.9,29.94,NW,309,7.0,10.5,61,0.00,,,0.00,0,,2013-06-28 06:21:00,
2013-06-28 01:31:00,69.4,-99.9,29.94,West,264,4.0,7.1,63,0.00,,,0.00,0,,2013-06-28 06:31:00,
2013-06-28 01:41:00,68.6,-99.9,29.94,WNW,291,5.0,8.8,66,0.00,,,0.00,0,,2013-06-28 06:41:00,
2013-06-28 01:51:00,67.9,-99.9,29.94,WSW,255,4.0,5.4,69,0.00,,,0.00,0,,2013-06-28 06:51:00,
2013-06-28 02:01:00,66.9,-99.9,29.94,WNW,292,5.0,7.1,71,0.00,,,0.00,0,,2013-06-28 07:01:00,
2013-06-28 02:11:00,67.3,-99.9,29.94,West,272,4.0,7.1,71,0.00,,,0.00,0,,2013-06-28 07:11:00,
2013-06-28 02:21:00,67.4,-99.9,29.94,WNW,294,6.0,8.8,70,0.00,,,0.00,0,,2013-06-28 07:21:00,
2013-06-28 02:31:00,67.8,-99.9,29.94,NW,309,6.0,10.5,69,0.00,,,0.00,0,,2013-06-28 07:31:00,
2013-06-28 02:41:00,68.1,-99.9,29.94,West,264,6.0,8.8,69,0.00,,,0.00,0,,2013-06-28 07:41:00,
2013-06-28 02:51:00,68.1,-99.9,29.94,NW,307,6.0,8.8,69,0.00,,,0.00,0,,2013-06-28 07:51:00,
2013-06-28 03:01:00,68.1,-99.9,29.94,WNW,302,3.0,5.4,68,0.00,,,0.00,0,,2013-06-28 08:01:00,
2013-06-28 03:11:00,68.2,-99.9,29.94,WSW,256,4.0,7.1,68,0.00,,,0.00,0,,2013-06-28 08:11:00,
2013-06-28 03:21:00,68.1,-99.9,29.95,West,278,6.0,8.8,68,0.00,,,0.00,0,,2013-06-28 08:21:00,
2013-06-28 03:31:00,68.1,-99.9,29.95,West,259,5.0,7.1,68,0.00,,,0.00,0,,2013-06-28 08:31:00,
2013-06-28 03:41:00,68.3,-99.9,29.95,West,271,8.0,12.1,67,0.00,,,0.00,0,,2013-06-28 08:41:00,
2013-06-28 03:51:00,68.2,-99.9,29.95,WNW,287,5.0,8.8,67,0.00,,,0.00,0,,2013-06-28 08:51:00,
2013-06-28 04:01:00,67.7,-99.9,29.95,West,272,5.0,7.1,68,0.00,,,0.00,0,,2013-06-28 09:01:00,
2013-06-28 04:11:00,67.4,-99.9,29.96,NW,306,4.0,8.8,69,0.00,,,0.00,0,,2013-06-28 09:11:00,
2013-06-28 04:21:00,67.1,-99.9,29.96,WNW,303,6.0,8.8,70,0.00,,,0.00,0,,2013-06-28 09:21:00,
2013-06-28 04:31:00,66.8,-99.9,29.96,NW,313,5.0,7.1,71,0.00,,,0.00,0,,2013-06-28 09:31:00,
2013-06-28 04:41:00,66.7,-99.9,29.96,West,259,6.0,10.5,71,0.00,,,0.00,0,,2013-06-28 09:41:00,
2013-06-28 04:51:00,66.6,-99.9,29.96,WNW,287,8.0,12.1,71,0.00,,,0.00,0,,2013-06-28 09:51:00,
2013-06-28 05:01:00,66.4,-99.9,29.96,WNW,287,8.0,10.5,72,0.00,,,0.00,0,,2013-06-28 10:01:00,
2013-06-28 05:11:00,66.2,-99.9,29.96,West,276,5.0,8.8,72,0.00,,,0.00,0.203,,2013-06-28 10:11:00,
2013-06-28 05:21:00,65.9,-99.9,29.96,NW,306,6.0,8.8,74,0.00,,,0.00,0.68,,2013-06-28 10:21:00,
2013-06-28 05:31:00,65.8,-99.9,29.96,West,278,8.0,12.1,74,0.00,,,0.00,2.064,,2013-06-28 10:31:00,
2013-06-28 05:41:00,65.9,-99.9,29.96,West,273,7.0,13.8,73,0.00,,,0.00,4.524,,2013-06-28 10:41:00,
2013-06-28 05:51:00,65.7,-99.9,29.96,West,269,6.0,10.5,74,0.00,,,0.00,8.04,,2013-06-28 10:51:00,
2013-06-28 06:01:00,65.6,-99.9,29.97,NW,316,8.0,12.1,74,0.00,,,0.00,12.09,,2013-06-28 11:01:00,
2013-06-28 06:11:00,65.5,-99.9,29.97,West,281,7.0,12.1,74,0.00,,,0.00,15.97,,2013-06-28 11:11:00,
2013-06-28 06:21:00,65.6,-99.9,29.97,WNW,289,7.0,8.8,74,0.00,,,0.00,19.34,,2013-06-28 11:21:00,
2013-06-28 06:31:00,65.9,-99.9,29.98,WNW,299,8.0,12.1,74,0.00,,,0.00,22.61,,2013-06-28 11:31:00,
2013-06-28 06:41:00,65.9,-99.9,29.98,West,267,7.0,12.1,74,0.00,,,0.00,26.23,,2013-06-28 11:41:00,
2013-06-28 06:51:00,66.2,-99.9,29.98,WNW,299,8.0,12.1,74,0.00,,,0.00,30.53,,2013-06-28 11:51:00,
2013-06-28 07:01:00,66.6,-99.9,29.98,NW,308,6.0,8.8,73,0.00,,,0.00,193.5,,2013-06-28 12:01:00,
2013-06-28 07:11:00,67.3,-99.9,29.98,WNW,296,4.0,7.1,72,0.00,,,0.00,222.6,,2013-06-28 12:11:00,
2013-06-28 07:21:00,67.8,-99.9,29.98,WNW,295,7.0,10.5,72,0.00,,,0.00,252.4,,2013-06-28 12:21:00,
2013-06-28 07:31:00,67.9,-99.9,29.98,WNW,288,7.0,10.5,72,0.00,,,0.00,283.4,,2013-06-28 12:31:00,
2013-06-28 07:41:00,68.6,-99.9,29.98,WNW,293,7.0,12.1,70,0.00,,,0.00,313.9,,2013-06-28 12:41:00,
2013-06-28 07:51:00,69.2,-99.9,29.98,NNW,345,5.0,7.1,69,0.00,,,0.00,345.2,,2013-06-28 12:51:00,
2013-06-28 08:01:00,69.9,-99.9,29.98,NW,317,7.0,15.5,67,0.00,,,0.00,375.7,,2013-06-28 13:01:00,
2013-06-28 08:11:00,70.1,-99.9,29.98,North,350,10.0,17.2,67,0.00,,,0.00,405.3,,2013-06-28 13:11:00,
2013-06-28 08:21:00,70.5,-99.9,29.98,WNW,300,5.0,10.5,67,0.00,,,0.00,433.8,,2013-06-28 13:21:00,
2013-06-28 08:31:00,70.8,-99.9,29.98,WNW,302,8.0,12.1,66,0.00,,,0.00,463.3,,2013-06-28 13:31:00,
2013-06-28 08:41:00,71.7,-99.9,29.98,NW,312,6.0,12.1,64,0.00,,,0.00,494.3,,2013-06-28 13:41:00,
2013-06-28 08:51:00,72.0,-99.9,29.98,NNW,340,5.0,10.5,63,0.00,,,0.00,522.4,,2013-06-28 13:51:00,
2013-06-28 09:01:00,72.2,-99.9,29.99,NNE,24,6.0,8.8,63,0.00,,,0.00,550.1,,2013-06-28 14:01:00,
2013-06-28 09:11:00,72.2,-99.9,29.99,NNW,346,6.0,10.5,63,0.00,,,0.00,578.4,,2013-06-28 14:11:00,
2013-06-28 09:21:00,72.8,-99.9,29.99,NNW,328,11.0,17.2,61,0.00,,,0.00,604.9,,2013-06-28 14:21:00,
2013-06-28 09:31:00,73.5,-99.9,29.99,NNW,332,6.0,8.8,61,0.00,,,0.00,630.2,,2013-06-28 14:31:00,
2013-06-28 09:41:00,73.3,-99.9,29.99,North,2,8.0,13.8,60,0.00,,,0.00,655.7,,2013-06-28 14:41:00,
2013-06-28 09:51:00,74.0,-99.9,29.98,WNW,295,8.0,13.8,57,0.00,,,0.00,682.7,,2013-06-28 14:51:00,
2013-06-28 10:01:00,74.7,-99.9,29.98,WNW,295,4.0,7.1,59,0.00,,,0.00,713.9,,2013-06-28 15:01:00,
2013-06-28 10:11:00,74.5,-99.9,29.98,NNW,330,12.0,17.2,57,0.00,,,0.00,752.1,,2013-06-28 15:11:00,
2013-06-28 10:21:00,75.1,-99.9,29.99,NNW,330,9.0,18.9,57,0.00,,,0.00,785.5,,2013-06-28 15:21:00,
2013-06-28 10:31:00,74.6,-99.9,29.98,NNW,336,10.0,15.5,57,0.00,,,0.00,723.7,,2013-06-28 15:31:00,
2013-06-28 10:41:00,75.6,-99.9,29.98,NW,323,7.0,12.1,56,0.00,,,0.00,799.1,,2013-06-28 15:41:00,
2013-06-28 10:51:00,75.5,-99.9,29.98,NW,325,13.0,20.5,54,0.00,,,0.00,817,,2013-06-28 15:51:00,
2013-06-28 11:01:00,76.7,-99.9,29.98,NNW,343,12.0,20.5,55,0.00,,,0.00,833,,2013-06-28 16:01:00,
2013-06-28 11:11:00,76.4,-99.9,29.98,NNW,328,9.0,15.5,53,0.00,,,0.00,856,,2013-06-28 16:11:00,
2013-06-28 11:21:00,77.1,-99.9,29.98,NW,326,10.0,15.5,50,0.00,,,0.00,743.8,,2013-06-28 16:21:00,
2013-06-28 11:31:00,76.8,-99.9,29.98,NNE,17,12.0,22.2,50,0.00,,,0.00,875,,2013-06-28 16:31:00,
2013-06-28 11:41:00,77.5,-99.9,29.98,NW,326,14.0,23.9,47,0.00,,,0.00,893,,2013-06-28 16:41:00,